Weaver, Minnesota
Current Conditions -  °F | °C
As of 4:35 AM on Wednesday 22 Oct 2014 (Local Time) from KONA Reporting Station
Clear Clear  
Wind Chill:   Ceiling: Unl
Heat Index:   Visibility: 10mi
Dew Point:   Wind: 5mph
Humidity: 87%   Direction: 140°SE
Pressure: 30.27"   Gusts: NA
Location:  44.1503°N, 91.9879°W
Report Text: KONA 220935Z AUTO 14004KT 10SM CLR 03/01 A3027 RMK AO2
Loading
Personal Weather Stations






























Interactive Weather Map
Tropical Storm Tracking
New forecast layout! Learn more

10-Day Weather Forecast

Advertisements
Track Severe Weather on mobile